Time;durP1;ratioP1;P1;durP2;ratioP2;P2;SDS_P1;SDS_P2;PMS_P1;PMS_P2;Temp;Humidity;BMP_temperature;BMP_pressure;BME280_temperature;BME280_humidity;BME280_pressure;Samples;Min_cycle;Max_cycle;Signal;HPM_P1;HPM_P2
2021/07/17 00:02:25;;;;;;;11.63;6.57;;;22.60;99.90;;;21.97;100.00;100653.50;3528964;39;100943;-83
2021/07/17 00:05:37;;;;;;;7.72;5.90;;;22.30;99.90;;;21.92;100.00;100647.03;3518832;39;103268;-84
2021/07/17 00:08:50;;;;;;;8.48;5.22;;;23.10;99.90;;;21.92;100.00;100655.22;3523600;39;102791;-84
2021/07/17 00:12:03;;;;;;;10.27;6.43;;;22.30;99.90;;;21.88;100.00;100655.66;3528443;39;100721;-83
2021/07/17 00:15:16;;;;;;;9.63;6.22;;;22.20;99.90;;;21.89;100.00;100651.03;3544668;39;99885;-86
2021/07/17 00:18:29;;;;;;;8.27;5.22;;;22.20;99.90;;;21.87;100.00;100658.63;3540634;39;101567;-83
2021/07/17 00:21:41;;;;;;;11.63;6.28;;;22.20;99.90;;;21.79;100.00;100658.91;3541328;39;101367;-83
2021/07/17 00:24:52;;;;;;;10.23;6.32;;;22.20;99.90;;;21.77;100.00;100666.44;3528688;39;102270;-83
2021/07/17 00:28:04;;;;;;;9.77;7.13;;;22.10;99.90;;;21.75;100.00;100663.97;3539125;39;100288;-85
2021/07/17 00:31:18;;;;;;;10.20;6.72;;;22.10;99.90;;;21.76;100.00;100665.59;3534564;39;100405;-85
2021/07/17 00:34:30;;;;;;;11.38;5.30;;;22.20;99.90;;;21.76;100.00;100671.06;3540696;39;102082;-85
2021/07/17 00:37:42;;;;;;;9.75;5.28;;;22.10;99.90;;;21.70;100.00;100660.22;3541148;39;100447;-84
2021/07/17 00:40:54;;;;;;;11.73;5.88;;;22.10;99.90;;;21.69;100.00;100655.84;3539636;39;99863;-84
2021/07/17 00:44:06;;;;;;;9.63;5.60;;;22.00;99.90;;;21.66;100.00;100659.00;3530369;39;103133;-83
2021/07/17 00:47:21;;;;;;;8.82;5.97;;;22.00;99.90;;;21.63;100.00;100651.28;3541860;39;101387;-85
2021/07/17 00:50:35;;;;;;;9.55;6.32;;;22.00;99.90;;;21.56;100.00;100656.78;3530695;39;101415;-84
2021/07/17 00:53:47;;;;;;;11.02;6.70;;;22.00;99.90;;;21.51;100.00;100664.78;3539524;39;101067;-83
2021/07/17 00:57:01;;;;;;;11.02;6.35;;;21.90;99.90;;;21.40;100.00;100666.31;3541689;39;101291;-81
2021/07/17 01:00:18;;;;;;;8.07;5.80;;;21.90;99.90;;;21.43;100.00;100665.88;3538790;39;101191;-81
2021/07/17 01:03:32;;;;;;;10.70;6.25;;;21.90;99.90;;;21.37;100.00;100674.94;3544932;39;100776;-84
2021/07/17 01:06:44;;;;;;;16.42;7.07;;;21.80;99.90;;;21.22;100.00;100684.44;3547488;39;99949;-83
2021/07/17 01:09:20;;;;;;;11.50;7.10;;;21.80;99.90;;;21.06;100.00;100681.13;3610319;22;101293;-84
2021/07/17 01:11:47;;;;;;;15.30;7.70;;;21.20;99.90;;;20.96;100.00;100698.97;3565255;39;103060;-84
2021/07/17 01:14:14;;;;;;;10.85;6.47;;;21.30;99.90;;;20.89;100.00;100707.19;3574098;39;100773;-84
2021/07/17 01:17:18;;;;;;;11.63;7.13;;;21.10;99.90;;;20.90;100.00;100718.88;3710791;22;104415;-83
2021/07/17 01:19:56;;;;;;;10.20;6.93;;;20.90;99.90;;;20.85;100.00;100727.69;3629256;22;102908;-81
2021/07/17 01:22:24;;;;;;;11.02;7.82;;;21.80;99.90;;;20.83;100.00;100742.53;3671455;22;103568;-83
2021/07/17 01:24:52;;;;;;;12.35;7.97;;;20.70;99.90;;;20.79;100.00;100745.69;3572066;39;100464;-84
2021/07/17 01:27:20;;;;;;;13.70;7.68;;;21.10;99.90;;;20.83;100.00;100745.25;3604020;22;101419;-84
2021/07/17 01:29:48;;;;;;;19.10;7.97;;;21.60;99.90;;;20.80;100.00;100751.97;3585106;39;101173;-87
2021/07/17 01:32:20;;;;;;;15.02;8.45;;;21.10;99.90;;;20.77;100.00;100752.41;3571274;22;104016;-83
2021/07/17 01:34:47;;;;;;;12.73;7.68;;;20.60;99.90;;;20.76;100.00;100756.19;3565572;39;100467;-84
2021/07/17 01:37:14;;;;;;;12.18;7.40;;;20.50;99.90;;;20.75;100.00;100762.66;3578106;39;101266;-87
2021/07/17 01:39:43;;;;;;;13.50;9.25;;;20.50;99.90;;;20.75;100.00;100770.81;3585778;39;100725;-84
2021/07/17 01:42:10;;;;;;;15.10;8.55;;;20.50;99.90;;;20.74;100.00;100771.88;3582980;39;102935;-85
2021/07/17 01:44:45;;;;;;;13.93;7.55;;;20.40;99.90;;;20.81;100.00;100769.94;3577511;39;100705;-88
2021/07/17 01:47:13;;;;;;;16.00;8.57;;;20.90;99.90;;;20.76;100.00;100773.31;3581219;39;100087;-85
2021/07/17 01:49:42;;;;;;;9.65;7.53;;;21.10;99.90;;;20.78;100.00;100783.97;3568428;39;100539;-84
2021/07/17 01:52:10;;;;;;;11.15;7.82;;;21.20;99.90;;;20.74;100.00;100778.13;3561130;39;103016;-83
2021/07/17 01:54:39;;;;;;;18.25;9.30;;;20.40;99.90;;;20.73;100.00;100786.50;3563684;39;102487;-84
2021/07/17 01:57:09;;;;;;;13.27;8.35;;;21.30;99.90;;;20.78;100.00;100795.69;3602090;22;104769;-84
2021/07/17 02:00:21;;;;;;;17.98;9.45;;;20.40;99.90;;;20.79;100.00;100791.91;3636880;22;105494;-83
2021/07/17 02:03:33;;;;;;;11.98;8.05;;;20.40;99.90;;;20.89;100.00;100796.94;3564501;39;100897;-86
2021/07/17 02:06:09;;;;;;;14.40;7.70;;;20.50;99.90;;;20.85;100.00;100806.56;3561219;22;106658;-87
2021/07/17 02:09:13;;;;;;;15.50;8.80;;;20.50;99.90;;;20.77;100.00;100809.53;2667766;22;106332;-90
2021/07/17 02:11:49;;;;;;;13.02;8.05;;;20.60;99.90;;;20.79;100.00;100821.84;3799776;22;105291;-86
2021/07/17 02:14:17;;;;;;;15.40;8.25;;;20.20;99.90;;;20.67;100.00;100825.41;3779476;22;105960;-88
2021/07/17 02:16:46;;;;;;;14.65;7.80;;;20.40;99.90;;;20.66;100.00;100831.88;3584892;39;100200;-86
2021/07/17 02:19:19;;;;;;;9.93;6.95;;;21.50;99.90;;;20.66;100.00;100831.88;3618728;22;100253;-87
2021/07/17 02:21:48;;;;;;;10.65;6.40;;;20.40;99.90;;;20.67;100.00;100825.41;3621664;22;104308;-85
2021/07/17 02:24:16;;;;;;;11.63;7.00;;;20.40;99.90;;;20.66;100.00;100813.69;3590529;39;101119;-85
2021/07/17 02:26:44;;;;;;;13.00;6.60;;;21.40;99.90;;;20.65;100.00;100814.75;3583452;39;100539;-87
2021/07/17 02:29:12;;;;;;;13.40;7.13;;;21.40;99.90;;;20.65;100.00;100811.19;3613586;22;103684;-83
2021/07/17 02:31:42;;;;;;;10.35;6.72;;;20.50;99.90;;;20.72;100.00;100814.75;3619597;22;104482;-84
2021/07/17 02:34:10;;;;;;;10.50;6.13;;;20.20;99.90;;;20.71;100.00;100821.22;3580125;39;103194;-86
2021/07/17 02:36:39;;;;;;;11.45;7.53;;;20.30;99.90;;;20.72;100.00;100817.47;2808358;22;106975;-85
2021/07/17 02:39:09;;;;;;;8.52;5.55;;;20.40;99.90;;;20.71;100.00;100830.22;3581114;39;101612;-90
2021/07/17 02:42:12;;;;;;;10.15;6.32;;;20.40;99.90;;;20.69;100.00;100829.59;3451977;22;105826;-86
2021/07/17 02:44:49;;;;;;;9.07;7.05;;;21.20;99.90;;;20.67;100.00;100836.28;3439604;22;107577;-85
2021/07/17 02:47:54;;;;;;;7.32;5.60;;;20.30;99.90;;;20.69;100.00;100837.75;3636508;22;101930;-83
2021/07/17 02:51:06;;;;;;;8.32;5.40;;;20.80;99.90;;;20.69;100.00;100839.63;3557247;39;100637;-84
2021/07/17 02:54:17;;;;;;;8.77;5.70;;;20.40;99.90;;;20.71;100.00;100848.44;3633979;22;104456;-83
2021/07/17 02:56:53;;;;;;;7.07;4.88;;;20.40;99.90;;;20.65;100.00;100849.25;3611697;22;100223;-85
2021/07/17 02:59:20;;;;;;;5.93;4.00;;;20.40;99.90;;;20.63;100.00;100848.66;3570935;39;100376;-86
2021/07/17 03:01:47;;;;;;;6.25;3.67;;;20.40;99.90;;;20.57;100.00;100855.75;3564037;39;100104;-83
2021/07/17 03:04:15;;;;;;;6.25;3.95;;;20.50;99.90;;;20.53;100.00;100859.91;3574630;39;100780;-85
2021/07/17 03:06:42;;;;;;;5.70;4.10;;;20.40;99.90;;;20.56;100.00;100855.97;3571643;22;103352;-85
2021/07/17 03:09:09;;;;;;;7.18;4.35;;;20.40;99.90;;;20.42;100.00;100852.41;3544380;39;101469;-86
2021/07/17 03:11:36;;;;;;;7.50;4.40;;;20.40;99.90;;;20.48;100.00;100862.44;3577256;22;100969;-84
2021/07/17 03:14:34;;;;;;;5.50;4.28;;;20.40;99.90;;;20.48;100.00;100864.31;3596455;39;100147;-86
2021/07/17 03:17:01;;;;;;;4.85;3.88;;;20.90;99.90;;;20.41;100.00;100870.59;3570258;39;100202;-87
2021/07/17 03:19:28;;;;;;;8.60;5.03;;;21.40;99.90;;;20.37;100.00;100874.78;3624377;22;103727;-83
2021/07/17 03:21:55;;;;;;;6.82;4.53;;;20.30;99.90;;;20.48;100.00;100869.78;3557208;39;101320;-85
2021/07/17 03:24:22;;;;;;;8.82;5.03;;;21.30;99.90;;;20.47;100.00;100865.38;3550104;39;100325;-86
2021/07/17 03:26:49;;;;;;;7.60;5.25;;;21.40;99.90;;;20.38;100.00;100867.47;3545269;39;99983;-83
2021/07/17 03:29:54;;;;;;;6.07;4.75;;;20.70;99.90;;;20.44;100.00;100874.78;3590946;22;105748;-84
2021/07/17 03:33:06;;;;;;;11.00;5.07;;;20.50;99.90;;;20.41;100.00;100878.75;3631323;22;103412;-86
2021/07/17 03:36:18;;;;;;;7.43;4.60;;;20.40;99.90;;;20.36;100.00;100878.53;3542841;39;101072;-83
2021/07/17 03:39:30;;;;;;;4.90;4.05;;;21.30;99.90;;;20.37;100.00;100876.66;3535805;39;101046;-83
2021/07/17 03:42:41;;;;;;;7.85;4.50;;;20.40;99.90;;;20.44;100.00;100875.63;3578489;22;102476;-86
2021/07/17 03:45:55;;;;;;;5.43;4.47;;;20.40;99.90;;;20.31;100.00;100885.59;3545736;39;103249;-85
2021/07/17 03:49:06;;;;;;;14.57;6.47;;;20.40;99.90;;;20.29;100.00;100885.81;3543286;39;101559;-85
2021/07/17 03:52:18;;;;;;;10.00;6.30;;;20.40;99.90;;;20.32;100.00;100887.28;3537714;39;100882;-83
2021/07/17 03:55:30;;;;;;;8.98;6.28;;;20.30;99.90;;;20.29;100.00;100895.84;3582408;22;103594;-84
2021/07/17 03:58:42;;;;;;;7.70;5.53;;;20.40;99.90;;;20.34;100.00;100904.22;3621948;22;101596;-87
2021/07/17 04:01:56;;;;;;;10.05;5.60;;;20.30;99.90;;;20.36;100.00;100908.44;3584976;22;107019;-87
2021/07/17 04:05:07;;;;;;;13.00;6.65;;;20.40;99.90;;;20.37;100.00;100909.28;3631172;22;105921;-84
2021/07/17 04:07:44;;;;;;;7.00;5.85;;;20.40;99.90;;;20.22;100.00;100916.75;3616083;22;103283;-84
2021/07/17 04:10:13;;;;;;;9.15;6.32;;;21.00;99.90;;;20.25;100.00;100919.06;3538270;39;102941;-84
2021/07/17 04:12:40;;;;;;;12.20;6.70;;;20.50;99.90;;;20.22;100.00;100923.00;3548776;39;100832;-83
2021/07/17 04:15:09;;;;;;;8.07;5.68;;;19.60;99.90;;;20.21;100.00;100931.38;3547014;39;100151;-85
2021/07/17 04:17:37;;;;;;;8.38;6.15;;;20.50;99.90;;;20.14;100.00;100939.50;3548939;39;102046;-86
2021/07/17 04:20:41;;;;;;;11.00;6.93;;;20.50;99.90;;;20.16;100.00;100939.28;3627093;22;105308;-83
2021/07/17 04:23:52;;;;;;;9.45;6.55;;;20.60;99.90;;;20.14;100.00;100949.53;3544250;39;102319;-87
2021/07/17 04:27:04;;;;;;;9.65;6.85;;;20.60;99.90;;;19.84;100.00;100944.41;3543934;39;100690;-86
2021/07/17 04:30:17;;;;;;;9.43;6.15;;;20.60;99.90;;;19.54;100.00;100956.56;3539374;39;100959;-83
2021/07/17 04:33:30;;;;;;;8.70;6.00;;;20.60;99.90;;;19.39;100.00;100975.69;3609617;22;105401;-84
2021/07/17 04:36:42;;;;;;;8.85;6.30;;;20.90;99.90;;;19.33;100.00;100988.16;3524529;39;100658;-86
2021/07/17 04:39:18;;;;;;;8.32;6.25;;;21.50;99.90;;;19.28;100.00;101001.50;3594564;22;101573;-83
2021/07/17 04:41:45;;;;;;;8.43;6.63;;;20.70;99.90;;;19.26;100.00;101013.56;3575147;39;100944;-84
2021/07/17 04:44:12;;;;;;;9.55;6.65;;;21.50;99.90;;;19.25;100.00;101014.59;3569685;39;100938;-85
2021/07/17 04:46:39;;;;;;;8.85;7.10;;;20.70;99.90;;;19.33;100.00;101028.03;3569176;39;101010;-86
2021/07/17 04:49:07;;;;;;;9.23;6.70;;;20.80;99.90;;;19.38;100.00;101048.13;3587695;22;105270;-83
2021/07/17 04:51:34;;;;;;;14.70;7.63;;;20.80;99.90;;;19.31;100.00;101055.34;3532969;39;101040;-83
2021/07/17 04:54:01;;;;;;;14.73;6.80;;;20.70;99.90;;;19.38;100.00;101067.09;3536117;39;102110;-85
2021/07/17 04:56:28;;;;;;;8.55;6.90;;;20.70;99.90;;;19.39;100.00;101070.66;3535202;39;100630;-84
2021/07/17 04:58:55;;;;;;;8.88;6.85;;;20.80;99.90;;;19.44;100.00;101089.06;3523266;39;100077;-84
2021/07/17 05:01:22;;;;;;;10.40;6.55;;;20.80;99.90;;;19.37;100.00;101081.72;3530266;39;101224;-84
2021/07/17 05:03:49;;;;;;;8.90;7.10;;;21.60;99.90;;;19.37;100.00;101080.88;3534882;39;101081;-86
2021/07/17 05:06:18;;;;;;;10.55;6.90;;;20.90;99.90;;;19.46;100.00;101084.28;3543123;39;101250;-83
2021/07/17 05:08:45;;;;;;;12.57;6.80;;;21.40;99.90;;;19.45;100.00;101094.28;3533926;39;100854;-86
2021/07/17 05:11:12;;;;;;;10.13;7.00;;;21.80;99.90;;;19.43;100.00;101093.63;3530555;39;102692;-85
2021/07/17 05:13:39;;;;;;;9.68;6.15;;;21.70;99.90;;;19.43;100.00;101090.09;3536257;39;101282;-86
2021/07/17 05:16:06;;;;;;;5.90;5.30;;;20.50;99.90;;;19.47;100.00;101096.81;3541565;39;100463;-84
2021/07/17 05:18:33;;;;;;;9.40;6.20;;;20.90;99.90;;;19.50;100.00;101091.88;3536362;39;100045;-84
2021/07/17 05:21:01;;;;;;;11.88;6.50;;;20.40;99.90;;;19.41;100.00;101078.63;3523595;39;100395;-82
2021/07/17 05:23:29;;;;;;;8.57;6.28;;;21.00;99.90;;;19.55;100.00;101078.53;3531931;39;101493;-84
2021/07/17 05:25:57;;;;;;;11.43;6.82;;;21.90;99.90;;;19.39;100.00;101070.66;3523183;39;102313;-81
2021/07/17 05:28:24;;;;;;;8.80;5.95;;;21.90;99.90;;;19.50;100.00;101066.59;3535593;39;100094;-83
2021/07/17 05:30:51;;;;;;;8.80;6.43;;;21.00;99.90;;;19.56;100.00;101063.91;3527451;39;101167;-83
2021/07/17 05:33:18;;;;;;;10.27;6.75;;;21.00;99.90;;;19.51;100.00;101065.56;3535547;39;101321;-86
2021/07/17 05:35:45;;;;;;;9.88;6.65;;;21.00;99.90;;;19.43;100.00;101080.06;3543308;39;102835;-86
2021/07/17 05:38:12;;;;;;;10.90;7.15;;;21.00;99.90;;;19.53;100.00;101079.78;3537714;39;100088;-83
2021/07/17 05:40:41;;;;;;;10.98;6.25;;;21.10;99.90;;;19.67;100.00;101085.09;3527125;39;101800;-86
2021/07/17 05:43:08;;;;;;;13.82;8.13;;;21.00;99.90;;;19.68;100.00;101089.47;3528199;39;101169;-82
2021/07/17 05:45:36;;;;;;;9.88;6.20;;;21.10;99.90;;;19.54;100.00;101084.16;3536397;39;100089;-86
2021/07/17 05:48:03;;;;;;;8.50;6.97;;;21.10;99.90;;;19.61;100.00;101076.91;3539656;39;100247;-86
2021/07/17 05:50:31;;;;;;;10.68;7.72;;;21.10;99.90;;;19.46;100.00;101086.97;3537847;39;101205;-87
2021/07/17 05:52:58;;;;;;;10.13;6.38;;;21.10;99.90;;;19.55;100.00;101088.53;3638369;22;103237;-83
2021/07/17 05:55:25;;;;;;;10.93;6.97;;;21.10;99.90;;;19.54;100.00;101017.13;3543595;39;100586;-85
2021/07/17 05:57:54;;;;;;;10.32;7.07;;;21.00;99.90;;;19.51;100.00;101022.13;3615102;22;101206;-85
2021/07/17 06:00:21;;;;;;;9.10;6.80;;;21.10;99.90;;;19.49;100.00;101024.22;3566507;39;102436;-85
2021/07/17 06:02:48;;;;;;;10.07;6.30;;;21.90;99.90;;;19.52;100.00;101016.50;3590207;22;103101;-85
2021/07/17 06:05:15;;;;;;;8.48;6.47;;;21.00;99.90;;;19.50;100.00;101026.72;3578603;22;104060;-87
2021/07/17 06:08:18;;;;;;;15.05;7.15;;;22.00;99.90;;;19.43;100.00;101012.22;3604709;22;103774;-84
2021/07/17 06:11:30;;;;;;;13.55;7.60;;;21.00;99.90;;;19.50;100.00;101009.59;3586516;22;101012;-85
2021/07/17 06:14:44;;;;;;;16.63;6.63;;;21.20;99.90;;;19.45;100.00;101018.28;3543622;39;103289;-83
2021/07/17 06:17:55;;;;;;;7.75;6.70;;;20.90;99.90;;;19.62;100.00;100991.72;3548325;39;100526;-85
2021/07/17 06:21:07;;;;;;;12.00;6.18;;;20.90;99.90;;;19.46;100.00;100970.28;3528860;39;101153;-84
2021/07/17 06:24:19;;;;;;;13.13;7.88;;;20.90;99.90;;;19.59;100.00;100965.81;3622591;22;105145;-87
2021/07/17 06:27:31;;;;;;;11.95;6.95;;;20.90;99.90;;;19.63;100.00;100953.50;3593159;22;104153;-87
2021/07/17 06:30:09;;;;;;;11.10;7.43;;;21.00;99.90;;;19.65;100.00;100920.75;3613559;22;105205;-84
2021/07/17 06:32:37;;;;;;;15.90;7.82;;;21.00;99.90;;;19.72;100.00;100870.00;3630629;22;105125;-82
2021/07/17 06:35:05;;;;;;;9.70;5.72;;;21.30;99.90;;;19.71;100.00;100816.75;3631792;22;104411;-86
2021/07/17 06:37:32;;;;;;;10.25;7.75;;;21.00;99.90;;;19.70;100.00;100840.34;3588847;22;101970;-86
2021/07/17 06:39:59;;;;;;;11.10;7.50;;;21.10;99.90;;;19.64;100.00;100816.75;3552060;39;100749;-83
2021/07/17 06:42:26;;;;;;;10.40;7.38;;;21.10;99.90;;;19.59;100.00;100793.94;3628687;22;100695;-87
2021/07/17 06:44:53;;;;;;;11.77;6.47;;;21.40;99.90;;;19.75;100.00;100640.69;3547296;39;101075;-86
2021/07/17 06:47:22;;;;;;;15.50;6.45;;;22.00;99.90;;;19.75;100.00;100643.41;3545782;39;101417;-84
2021/07/17 06:49:49;;;;;;;15.75;8.75;;;21.00;99.90;;;19.66;100.00;100642.75;3553009;39;100930;-86
2021/07/17 06:52:16;;;;;;;13.70;6.68;;;21.00;99.90;;;19.74;100.00;100639.88;3634595;22;105302;-85
2021/07/17 06:54:43;;;;;;;9.70;7.00;;;21.10;99.90;;;19.76;100.00;100642.38;3557487;39;101148;-85
2021/07/17 06:57:10;;;;;;;10.98;6.45;;;21.10;99.90;;;19.73;100.00;100638.19;3555823;39;103069;-86
2021/07/17 06:59:37;;;;;;;10.40;6.38;;;21.50;99.90;;;19.83;100.00;100646.75;3556544;22;106053;-84
2021/07/17 07:02:04;;;;;;;11.77;5.65;;;21.10;99.90;;;19.81;100.00;100741.16;3522277;22;105226;-84
2021/07/17 07:04:32;;;;;;;17.40;6.88;;;21.10;99.90;;;19.77;100.00;100756.19;3550820;39;103400;-84
2021/07/17 07:06:59;;;;;;;16.70;6.10;;;21.20;99.90;;;19.75;100.00;100758.28;3564272;39;100980;-88
2021/07/17 07:09:26;;;;;;;8.50;6.20;;;22.00;99.90;;;19.80;100.00;100774.78;3557718;39;102656;-87
2021/07/17 07:11:53;;;;;;;6.10;5.18;;;21.20;99.90;;;19.84;100.00;100775.19;3626824;22;104115;-87
2021/07/17 07:14:57;;;;;;;6.18;4.70;;;21.30;99.90;;;19.79;100.00;100789.38;3612251;22;106340;31
2021/07/17 07:18:09;;;;;;;10.02;5.07;;;21.30;99.90;;;19.92;100.00;100949.66;3541493;39;100652;-87
2021/07/17 07:21:23;;;;;;;8.38;5.50;;;21.30;99.90;;;19.84;100.00;101020.44;3535902;39;102376;-87
2021/07/17 07:23:59;;;;;;;9.05;5.32;;;21.30;99.90;;;19.85;100.00;101010.44;3622511;22;105971;-87
2021/07/17 07:27:02;;;;;;;6.20;4.82;;;22.30;99.90;;;19.81;100.00;101017.28;3567840;22;105921;-84
2021/07/17 07:29:38;;;;;;;6.95;4.72;;;21.50;99.90;;;19.78;100.00;101018.53;3618578;22;110228;-84
2021/07/17 07:32:06;;;;;;;5.75;4.57;;;21.50;99.90;;;19.70;100.00;101019.53;3603270;22;103790;-85
2021/07/17 07:34:33;;;;;;;8.18;6.47;;;21.30;99.90;;;19.75;100.00;101027.09;3666931;22;104218;-86
2021/07/17 07:37:01;;;;;;;8.70;5.00;;;21.30;99.90;;;19.75;100.00;101037.94;3505218;22;107631;-84
2021/07/17 07:39:28;;;;;;;6.85;4.70;;;21.30;99.90;;;19.72;100.00;101063.63;3567932;39;102751;-84
2021/07/17 07:41:56;;;;;;;8.23;5.07;;;21.30;99.90;;;19.68;100.00;101067.75;3568205;39;100565;-87
2021/07/17 07:44:23;;;;;;;9.25;6.25;;;21.30;99.90;;;19.72;100.00;101081.78;3555809;39;100938;-84
2021/07/17 07:46:50;;;;;;;10.20;6.65;;;21.30;99.90;;;19.68;100.00;101119.34;3558336;39;101515;-85
2021/07/17 07:49:18;;;;;;;13.48;5.13;;;21.20;99.90;;;19.71;100.00;101199.56;3559572;39;101324;-83
2021/07/17 07:51:45;;;;;;;10.02;5.20;;;21.20;99.90;;;19.77;100.00;101428.78;3560720;39;100009;-83
2021/07/17 07:54:13;;;;;;;7.97;6.28;;;21.30;99.90;;;19.76;100.00;101674.25;3543976;39;100305;-84
2021/07/17 07:56:41;;;;;;;8.45;6.35;;;21.20;99.90;;;19.80;100.00;101752.44;3641605;22;101785;-84
2021/07/17 07:59:08;;;;;;;9.80;6.03;;;21.30;99.90;;;19.76;100.00;101747.56;3558653;39;101184;-84
2021/07/17 08:01:35;;;;;;;11.40;6.28;;;21.90;99.90;;;19.81;100.00;101766.84;3598439;22;104131;-83
2021/07/17 08:04:02;;;;;;;11.52;7.32;;;21.30;99.90;;;19.84;100.00;101770.06;3596584;22;104350;-82
2021/07/17 08:06:29;;;;;;;14.88;6.82;;;21.30;99.90;;;19.88;100.00;101771.41;3581463;22;104993;-86
2021/07/17 08:09:34;;;;;;;11.68;7.03;;;21.30;99.90;;;19.94;100.00;101777.94;3629264;22;104686;-86
2021/07/17 08:12:45;;;;;;;11.35;6.13;;;21.40;99.90;;;19.87;100.00;101771.56;3574405;39;100671;-86
2021/07/17 08:15:58;;;;;;;15.68;7.72;;;21.50;99.90;;;19.98;100.00;101803.72;3572755;39;100476;-82
2021/07/17 08:19:10;;;;;;;12.13;6.88;;;21.50;99.90;;;19.93;100.00;101849.59;3566163;39;103122;-82
2021/07/17 08:22:21;;;;;;;15.98;7.63;;;21.60;99.90;;;20.08;100.00;101820.63;3544856;39;103046;-82
2021/07/17 08:25:36;;;;;;;12.27;7.05;;;21.70;99.90;;;19.95;100.00;101791.34;3560513;39;100656;-83
2021/07/17 08:28:48;;;;;;;12.50;7.82;;;21.70;99.90;;;19.93;100.00;101792.56;3550424;39;100323;-83
2021/07/17 08:32:00;;;;;;;19.08;8.75;;;21.80;99.90;;;19.91;100.00;101817.19;3538088;39;103050;-83
2021/07/17 08:35:11;;;;;;;12.65;8.80;;;21.80;99.90;;;19.85;100.00;101815.22;3555504;39;100906;-86
2021/07/17 08:38:23;;;;;;;14.00;7.75;;;22.60;99.90;;;20.00;100.00;101820.69;3556840;39;102301;-84
2021/07/17 08:41:42;;;;;;;12.27;7.25;;;21.90;99.90;;;19.87;100.00;101824.03;3569954;39;100094;-81
2021/07/17 08:44:58;;;;;;;12.10;8.30;;;21.90;99.90;;;20.06;100.00;101836.25;3553736;39;102238;-82
2021/07/17 08:48:11;;;;;;;15.35;9.15;;;21.90;99.90;;;20.12;100.00;101832.81;3557144;39;102232;-82
2021/07/17 08:51:24;;;;;;;14.43;8.63;;;21.90;99.90;;;20.11;100.00;101806.69;3557278;39;102492;-82
2021/07/17 08:54:37;;;;;;;11.20;7.72;;;22.00;99.90;;;20.01;100.00;101797.94;3556742;39;100212;-82
2021/07/17 08:57:52;;;;;;;14.77;9.27;;;22.00;99.90;;;20.14;100.00;101795.44;3542185;39;103457;-85
2021/07/17 09:01:06;;;;;;;14.32;8.82;;;22.00;99.90;;;20.22;100.00;101773.63;3559248;39;101541;-85
2021/07/17 09:04:18;;;;;;;17.80;9.02;;;22.00;99.90;;;20.28;100.00;101742.97;3560097;39;100744;-82
2021/07/17 09:07:30;;;;;;;13.18;8.20;;;22.90;99.90;;;20.29;100.00;101736.50;3547934;39;100278;-85
2021/07/17 09:11:01;;;;;;;11.05;8.90;;;22.10;99.90;;;20.27;100.00;101722.28;3545255;39;102838;-82
2021/07/17 09:14:14;;;;;;;18.13;8.93;;;22.20;99.90;;;20.29;100.00;101709.31;3550800;39;101312;-86
2021/07/17 09:17:31;;;;;;;13.95;9.07;;;22.20;99.90;;;20.25;100.00;101705.31;3549046;39;102614;-82
2021/07/17 09:20:43;;;;;;;23.33;9.95;;;22.20;99.90;;;20.40;100.00;101708.88;3561343;39;100236;-86
2021/07/17 09:24:01;;;;;;;13.05;8.68;;;22.30;99.90;;;20.42;100.00;101693.22;3554953;39;101374;-84
2021/07/17 09:27:30;;;;;;;14.07;8.48;;;22.30;99.90;;;20.44;100.00;101661.25;3549218;39;100038;-82
2021/07/17 09:31:08;;;;;;;12.48;9.55;;;22.30;99.90;;;20.46;100.00;101638.47;3547941;39;100268;-82
2021/07/17 09:34:22;;;;;;;13.63;8.27;;;22.40;99.90;;;20.73;100.00;101613.28;3527948;39;100370;-82
2021/07/17 09:37:40;;;;;;;14.80;8.35;;;22.50;99.90;;;20.63;100.00;101571.97;3549385;39;102900;-85
2021/07/17 09:41:08;;;;;;;12.82;9.20;;;22.50;99.90;;;20.75;100.00;101560.38;3561026;39;103553;-84
2021/07/17 09:44:43;;;;;;;12.73;8.77;;;22.80;99.90;;;20.91;100.00;101507.56;3166414;39;10001804;-84
2021/07/17 09:47:57;;;;;;;18.73;9.40;;;22.50;99.90;;;20.97;100.00;101452.38;3526197;39;108929;-86
2021/07/17 09:51:09;;;;;;;19.90;10.48;;;23.60;99.90;;;21.56;100.00;101404.78;3572024;22;100923;-85
2021/07/17 09:54:22;;;;;;;16.73;10.40;;;23.10;99.90;;;22.27;100.00;101299.72;3518695;39;103163;-85
2021/07/17 09:57:37;;;;;;;15.32;10.25;;;23.50;99.90;;;22.49;100.00;101186.66;3519719;39;102978;-81
2021/07/17 10:00:49;;;;;;;16.85;8.80;;;24.00;99.90;;;22.69;100.00;101110.19;3531131;39;100807;-84
2021/07/17 10:04:07;;;;;;;19.48;8.95;;;24.50;99.90;;;22.76;100.00;101045.53;3516623;39;101074;-82
2021/07/17 10:07:29;;;;;;;12.63;9.45;;;25.40;99.90;;;22.92;100.00;100971.34;3517801;39;101239;-83
2021/07/17 10:10:45;;;;;;;13.23;8.18;;;25.20;99.90;;;22.81;100.00;100914.75;3507516;39;103147;-84
2021/07/17 10:13:57;;;;;;;16.92;8.50;;;25.50;99.90;;;23.45;100.00;100972.75;3520357;39;100603;-85
2021/07/17 10:17:14;;;;;;;14.52;7.57;;;25.70;99.90;;;23.05;100.00;100913.06;3509237;39;100165;-83
2021/07/17 10:20:29;;;;;;;7.85;6.43;;;25.90;99.90;;;23.42;100.00;100853.88;3518362;39;100471;-82
2021/07/17 10:23:41;;;;;;;13.95;7.30;;;27.00;99.90;;;23.55;100.00;100826.41;3516011;39;101336;-83
2021/07/17 10:26:53;;;;;;;14.18;6.90;;;26.20;99.90;;;23.25;100.00;100788.09;3519040;39;100622;-85
2021/07/17 10:30:05;;;;;;;9.07;6.05;;;26.40;99.90;;;23.55;100.00;100769.06;3516936;39;100136;-83
2021/07/17 10:33:18;;;;;;;13.55;7.20;;;26.80;99.90;;;23.23;100.00;100749.31;3516585;39;101350;-85
2021/07/17 10:36:44;;;;;;;13.20;6.47;;;26.90;99.90;;;23.02;100.00;100741.56;3520262;39;101098;-84
2021/07/17 10:40:05;;;;;;;10.50;7.05;;;26.80;99.90;;;23.13;100.00;100746.25;3525721;39;100758;-86
2021/07/17 10:43:18;;;;;;;10.55;7.25;;;26.80;99.90;;;23.02;100.00;100743.47;3522041;39;100056;-83
2021/07/17 10:46:51;;;;;;;11.40;6.32;;;26.80;99.90;;;23.24;100.00;100740.03;3508032;39;103397;-83
2021/07/17 10:50:06;;;;;;;12.52;6.15;;;26.60;99.90;;;23.21;100.00;100735.03;3510482;39;101674;-83
2021/07/17 10:53:40;;;;;;;8.43;6.40;;;26.90;99.90;;;23.01;100.00;100728.16;3509336;39;103111;-83
2021/07/17 10:57:16;;;;;;;8.70;5.90;;;26.60;99.90;;;22.89;100.00;100730.81;3516288;39;99954;-83
2021/07/17 11:00:35;;;;;;;10.60;5.63;;;26.40;99.90;;;22.87;100.00;100724.78;3470668;40;101222;-85
2021/07/17 11:03:58;;;;;;;8.93;5.03;;;26.40;99.90;;;23.31;100.00;100733.66;3474722;39;103028;-84
2021/07/17 11:07:16;;;;;;;7.10;5.50;;;26.30;99.90;;;23.57;100.00;100736.88;3508328;39;102470;-82
2021/07/17 11:10:49;;;;;;;7.75;5.68;;;26.40;99.90;;;23.37;100.00;100710.91;3516471;39;100751;-84
2021/07/17 11:14:19;;;;;;;8.90;6.72;;;26.50;99.90;;;23.29;100.00;100707.41;3516776;39;101039;-82
2021/07/17 11:17:37;;;;;;;13.90;6.22;;;26.50;99.90;;;23.47;100.00;100712.00;3509260;39;103200;-82
2021/07/17 11:21:01;;;;;;;9.20;5.30;;;27.20;99.90;;;23.61;100.00;100713.47;3519371;39;100643;-83
2021/07/17 11:24:23;;;;;;;7.55;5.95;;;26.60;99.90;;;23.56;100.00;100699.72;3503674;39;101602;-82
2021/07/17 11:27:58;;;;;;;6.97;6.25;;;26.70;99.90;;;23.83;100.00;100670.06;3504412;39;103022;-83
2021/07/17 11:31:29;;;;;;;8.35;4.97;;;26.70;99.90;;;23.63;100.00;100653.97;3517083;39;101154;-84
2021/07/17 11:35:01;;;;;;;10.65;6.00;;;26.90;99.90;;;23.73;100.00;100660.78;3514055;39;100347;-85